ซูริก, ประเทศสวิตเซอร์แลนด์

12:26 AM CEST วัน กรกฎาคม 05, 2015 (GMT +0200)
Zurich Airport | | Change Station
CLOSE
Current Station
Airport
Location: Zurich Airport,
Elevation: 1417 ft
Nearby Weather Stations

Elev 1417 ft 47.48 °N, 8.53 °E | Updated 6 minutes ago

Clear
ท้องฟ้าแจ่มใส
73 ฟาเรนไฮน์
Feels Like 73 ฟาเรนไฮน์
N
1
ลม ความผันแปร ลม from ทางทิศเหนือ

วันนี้
High -- | Low -- ฟาเรนไฮน์
--% Chance of Precip.
Yesterday
High -- | Low -- ฟาเรนไฮน์
Precip. -- นิ้ว
5:35 AM 9:24 PM
ข้างแรม, 90% visible
ความดัน 30.15 นิ้ว
ทัศนวิสัย -9999.0 ไมล์
เมฆ
อุณหภูมิที่อากาศอาจจับตัวเป็นหยาดน้ำค้าง 64 ฟาเรนไฮน์
ความชื้น 73%
Rainfall 0.00 นิ้ว
Snow Depth Not available.
UV Not available.
Pollen Not available.
Air Quality Not available.
Flu Activity Not available.
METAR LSZH 042220Z 36001KT CAVOK 23/18 Q1021 NOSIG

More Conditions Fewer Conditions

ความดัน 30.15 นิ้ว
ทัศนวิสัย -9999.0 ไมล์
เมฆ
อุณหภูมิที่อากาศอาจจับตัวเป็นหยาดน้ำค้าง 64 ฟาเรนไฮน์
ความชื้น 73%
Rainfall 0.00 นิ้ว
Snow Depth Not available.
UV Not available.
Pollen Not available.
Air Quality Not available.
Flu Activity Not available.
METAR LSZH 042220Z 36001KT CAVOK 23/18 Q1021 NOSIG

More Conditions Fewer Conditions

10-Day Weather Forecast

×

Almanac

ดาราศาสตร์

Jul. 05, 2015 Rise Set
Actual Time
Civil Twilight
Nautical Twilight
Astronomical Twilight
Moon
Length Of Visible Light
ความยาวของวัน
Tomorrow will be .
, % of the Moon is Illuminated

Today's Extremes

Country Highs Country Lows

Community

WunderPhotos

Upload Photos

1,835,105 photos uploaded!

WunderBlogs® & News

Nearby

Air Quality

  Air Quality AQ Index Pollutant
Not available.

Snow Depth

Station Depth Elevation

Earthquake Activity

City Distance Mag. Time & Date
Minimum magnitude displayed is 2.5.

Coastal Water Temperatures

สถานที่ อุณหภูมิ

Stations

Nearby Weather Stations

Station Location Temp ลมหนาว อุณหภูมิที่อากาศอาจจับตัวเป็นหยาดน้ำค้าง ความชื้น ลม Precip. Elev ปรับปรุงล่าสุด Type